Time;durP1;ratioP1;P1;durP2;ratioP2;P2;SDS_P1;SDS_P2;PMS_P1;PMS_P2;Temp;Humidity;BMP_temperature;BMP_pressure;BME280_temperature;BME280_humidity;BME280_pressure;Samples;Min_cycle;Max_cycle;Signal;HPM_P1;HPM_P2
2022/09/24 00:00:52;;;;;;;3.43;2.13;;;12.40;98.00;;;;;;5052072;28;20483;-68
2022/09/24 00:03:19;;;;;;;4.53;2.30;;;12.40;98.00;;;;;;5052443;28;20456;-67
2022/09/24 00:05:47;;;;;;;4.30;2.47;;;12.40;98.00;;;;;;5051808;28;20573;-68
2022/09/24 00:08:15;;;;;;;3.90;2.97;;;12.30;98.00;;;;;;5051978;28;20962;-67
2022/09/24 00:10:45;;;;;;;6.30;3.20;;;12.20;98.00;;;;;;5051897;28;20878;-67
2022/09/24 00:13:14;;;;;;;3.50;2.30;;;12.10;98.00;;;;;;5051956;28;20460;-67
2022/09/24 00:15:44;;;;;;;4.10;2.70;;;12.20;98.00;;;;;;5051843;28;20452;-68
2022/09/24 00:18:13;;;;;;;3.63;2.53;;;12.10;98.00;;;;;;5051849;28;20854;-68
2022/09/24 00:20:40;;;;;;;3.43;2.50;;;12.10;98.00;;;;;;5051953;28;20562;-67
2022/09/24 00:23:09;;;;;;;4.03;2.63;;;12.10;98.00;;;;;;5051810;28;20983;-68
2022/09/24 00:28:25;;;;;;;5.53;3.10;;;12.10;98.00;;;;;;5051799;28;20526;-68
2022/09/24 00:30:52;;;;;;;3.00;2.37;;;12.10;98.00;;;;;;5050099;28;20458;-67
2022/09/24 00:33:20;;;;;;;3.23;2.23;;;12.10;98.00;;;;;;5051573;28;20532;-68
2022/09/24 00:35:47;;;;;;;4.97;2.97;;;12.10;98.00;;;;;;5051324;28;20450;-68
2022/09/24 00:38:15;;;;;;;3.53;2.17;;;12.30;98.00;;;;;;5051469;28;20458;-68
2022/09/24 00:40:42;;;;;;;4.73;2.40;;;12.50;98.00;;;;;;5051072;28;20484;-68
2022/09/24 00:43:37;;;;;;;2.83;2.30;;;12.70;98.00;;;;;;5050121;28;20458;-67
2022/09/24 00:46:13;;;;;;;5.20;2.80;;;12.60;98.00;;;;;;5050950;28;20884;-67
2022/09/24 00:48:43;;;;;;;3.50;2.63;;;12.60;98.00;;;;;;5051273;28;20552;-67
2022/09/24 00:51:13;;;;;;;4.30;2.47;;;12.50;98.00;;;;;;5051326;28;21458;-67
2022/09/24 00:53:42;;;;;;;4.67;2.80;;;12.50;98.00;;;;;;5051235;28;20490;-67
2022/09/24 00:56:14;;;;;;;3.60;2.57;;;12.40;98.00;;;;;;5050300;28;20458;-68
2022/09/24 00:58:44;;;;;;;4.73;2.47;;;12.20;98.00;;;;;;5050032;28;20493;-67
2022/09/24 01:01:11;;;;;;;4.77;2.93;;;12.10;98.00;;;;;;5051179;28;20458;-67
2022/09/24 01:03:42;;;;;;;3.13;2.00;;;12.10;98.00;;;;;;5051446;28;20463;-68
2022/09/24 01:06:11;;;;;;;4.23;2.50;;;12.10;98.00;;;;;;5051121;28;20490;-67
2022/09/24 01:08:39;;;;;;;5.03;2.87;;;12.10;98.00;;;;;;5051211;28;20468;-68
2022/09/24 01:11:19;;;;;;;3.30;2.30;;;12.00;98.00;;;;;;5050903;28;20466;-67
2022/09/24 01:14:06;;;;;;;4.30;2.40;;;11.90;98.00;;;;;;5051101;28;20468;-68
2022/09/24 01:16:39;;;;;;;5.43;3.20;;;11.90;98.00;;;;;;5050138;28;20457;-67
2022/09/24 01:19:21;;;;;;;3.37;2.57;;;11.90;98.00;;;;;;5051399;28;20474;-67
2022/09/24 01:21:54;;;;;;;4.23;2.00;;;11.90;98.00;;;;;;5051107;28;21004;-68
2022/09/24 01:24:44;;;;;;;8.17;2.77;;;12.00;98.00;;;;;;5051026;28;20474;-68
2022/09/24 01:27:17;;;;;;;3.43;2.53;;;12.00;98.00;;;;;;5051003;28;20491;-68
2022/09/24 01:29:59;;;;;;;3.63;2.60;;;11.80;98.00;;;;;;5051060;28;20877;-68
2022/09/24 01:32:32;;;;;;;6.17;3.20;;;11.80;98.00;;;;;;5050997;28;20516;-68
2022/09/24 01:35:03;;;;;;;4.23;2.77;;;11.60;98.00;;;;;;5050867;28;20488;-67
2022/09/24 01:37:34;;;;;;;3.57;2.70;;;11.60;98.00;;;;;;5050857;28;20456;-67
2022/09/24 01:40:04;;;;;;;4.07;2.43;;;11.70;98.00;;;;;;5050773;28;20461;-68
2022/09/24 01:42:33;;;;;;;4.03;2.30;;;11.60;98.00;;;;;;5049458;28;20976;-67
2022/09/24 01:45:02;;;;;;;4.37;2.43;;;11.50;98.00;;;;;;5050749;28;20807;-68
2022/09/24 01:47:31;;;;;;;2.57;2.30;;;11.50;98.00;;;;;;5050807;28;20513;-68
2022/09/24 01:49:58;;;;;;;4.53;2.87;;;11.40;98.00;;;;;;5050742;28;20963;-68
2022/09/24 01:52:31;;;;;;;9.37;2.87;;;11.30;98.00;;;;;;5051156;28;20467;-67
2022/09/24 01:55:01;;;;;;;3.97;2.67;;;11.40;98.00;;;;;;5054412;28;20467;-67
2022/09/24 01:57:34;;;;;;;3.20;2.40;;;11.20;98.00;;;;;;5054420;28;20442;-67
2022/09/24 02:00:08;;;;;;;5.90;2.97;;;11.10;98.00;;;;;;5054361;28;20455;-67
2022/09/24 02:02:41;;;;;;;2.90;2.20;;;11.20;98.00;;;;;;5054633;28;20463;-68
2022/09/24 02:05:16;;;;;;;5.00;2.73;;;11.10;98.00;;;;;;5053203;28;20464;-67
2022/09/24 02:07:48;;;;;;;4.33;3.10;;;11.10;98.00;;;;;;5054438;28;20469;-67
2022/09/24 02:10:17;;;;;;;3.07;2.40;;;11.00;98.00;;;;;;5054293;28;20541;-67
2022/09/24 02:12:47;;;;;;;3.13;2.43;;;10.90;98.00;;;;;;5054169;28;20458;-67
2022/09/24 02:15:19;;;;;;;3.60;2.70;;;10.80;98.00;;;;;;5054566;28;20446;-68
2022/09/24 02:17:52;;;;;;;4.17;2.40;;;10.90;98.00;;;;;;5054675;28;20461;-67
2022/09/24 02:20:23;;;;;;;4.90;2.77;;;10.90;98.00;;;;;;5054233;28;20467;-67
2022/09/24 02:22:54;;;;;;;4.67;2.70;;;10.90;98.00;;;;;;5052844;28;20556;-67
2022/09/24 02:25:30;;;;;;;6.90;2.80;;;10.90;98.00;;;;;;5052695;28;20471;-68
2022/09/24 02:27:57;;;;;;;3.13;2.20;;;10.80;98.00;;;;;;5053952;28;20457;-67
2022/09/24 02:30:25;;;;;;;3.23;2.30;;;10.70;98.00;;;;;;5054076;28;20456;-67
2022/09/24 02:32:55;;;;;;;2.90;2.10;;;10.70;98.00;;;;;;5053854;28;20458;-67
2022/09/24 02:35:22;;;;;;;4.20;2.57;;;10.70;98.00;;;;;;5053818;28;20460;-67
2022/09/24 02:37:49;;;;;;;2.43;1.80;;;10.70;98.00;;;;;;5053390;28;20460;-67
2022/09/24 02:40:16;;;;;;;2.77;2.33;;;10.60;98.00;;;;;;5053714;28;20490;-67
2022/09/24 02:42:43;;;;;;;4.10;2.50;;;10.70;98.00;;;;;;5053639;28;20457;-68
2022/09/24 02:45:13;;;;;;;2.50;2.20;;;10.60;98.00;;;;;;5053481;28;20460;-68
2022/09/24 02:47:41;;;;;;;2.80;2.17;;;10.50;98.00;;;;;;5053449;28;20487;-68
2022/09/24 02:50:09;;;;;;;3.47;2.17;;;10.60;98.00;;;;;;5053483;28;20468;-67
2022/09/24 02:52:36;;;;;;;5.57;2.30;;;10.70;98.00;;;;;;5053519;28;20461;-67
2022/09/24 02:55:04;;;;;;;4.10;2.70;;;10.80;98.00;;;;;;5053349;28;20456;-67
2022/09/24 02:57:31;;;;;;;3.17;2.00;;;10.90;98.00;;;;;;5053417;28;20459;-67
2022/09/24 02:59:58;;;;;;;4.50;2.43;;;10.90;98.00;;;;;;5053441;28;20452;-68
2022/09/24 03:02:31;;;;;;;3.20;2.20;;;11.00;98.00;;;;;;5053153;28;20461;-67
2022/09/24 03:05:00;;;;;;;4.83;2.90;;;11.00;98.00;;;;;;5052981;28;20454;-67
2022/09/24 03:07:27;;;;;;;5.13;2.70;;;10.90;98.00;;;;;;5053122;28;20913;-67
2022/09/24 03:09:54;;;;;;;4.13;2.33;;;10.90;98.00;;;;;;5053161;28;20461;-67
2022/09/24 03:12:21;;;;;;;4.33;2.70;;;11.00;98.00;;;;;;5053361;28;20954;-67
2022/09/24 03:14:48;;;;;;;5.90;2.57;;;11.10;98.00;;;;;;5053346;28;20460;-67
2022/09/24 03:17:15;;;;;;;3.93;2.17;;;11.00;98.00;;;;;;5052998;28;20463;-68
2022/09/24 03:19:42;;;;;;;5.83;2.90;;;11.00;98.00;;;;;;5053144;28;20465;-67
2022/09/24 03:22:10;;;;;;;2.90;2.13;;;11.00;98.00;;;;;;5052788;28;20450;-67
2022/09/24 03:24:38;;;;;;;4.03;2.80;;;11.10;98.00;;;;;;5052643;28;20493;-67
2022/09/24 03:27:15;;;;;;;3.07;2.30;;;11.10;98.00;;;;;;5051361;28;20986;-68
2022/09/24 03:32:26;;;;;;;4.40;2.37;;;11.00;98.00;;;;;;5052032;28;20449;-67
2022/09/24 03:34:53;;;;;;;2.47;2.30;;;11.20;98.00;;;;;;5052615;28;20485;-67
2022/09/24 03:37:22;;;;;;;3.73;2.50;;;11.30;98.00;;;;;;5052735;28;20502;-67
2022/09/24 03:39:50;;;;;;;4.70;2.83;;;11.40;98.00;;;;;;5052590;28;20454;-67
2022/09/24 03:42:17;;;;;;;4.47;2.23;;;11.40;98.00;;;;;;5052397;28;20465;-67
2022/09/24 03:44:44;;;;;;;2.97;2.10;;;11.40;98.00;;;;;;5051268;28;20459;-67
2022/09/24 03:47:11;;;;;;;4.00;2.33;;;11.40;98.00;;;;;;5052313;28;21172;-67
2022/09/24 03:49:38;;;;;;;5.27;2.37;;;11.50;98.00;;;;;;5052514;28;20515;-67
2022/09/24 03:52:05;;;;;;;3.27;2.13;;;11.50;98.00;;;;;;5052071;28;20975;-67
2022/09/24 03:54:34;;;;;;;4.03;2.73;;;11.50;98.00;;;;;;5052385;28;20473;-67
2022/09/24 03:57:01;;;;;;;4.30;2.63;;;11.50;98.00;;;;;;5052124;28;20499;-67
2022/09/24 03:59:28;;;;;;;4.23;2.73;;;11.40;98.00;;;;;;5052238;28;20482;-67
2022/09/24 04:01:55;;;;;;;4.50;2.20;;;11.40;98.00;;;;;;5052160;28;20461;-67
2022/09/24 04:04:24;;;;;;;3.63;2.50;;;11.50;98.00;;;;;;5052038;28;20459;-68
2022/09/24 04:06:51;;;;;;;3.10;2.50;;;11.50;98.00;;;;;;5051966;28;20489;-67
2022/09/24 04:09:19;;;;;;;3.60;2.30;;;11.50;98.00;;;;;;5051992;28;20481;-67
2022/09/24 04:11:47;;;;;;;3.87;2.50;;;11.40;98.00;;;;;;5051038;28;20471;-68
2022/09/24 04:14:14;;;;;;;4.07;2.43;;;11.50;98.00;;;;;;5052077;28;20877;-67
2022/09/24 04:16:41;;;;;;;4.93;2.33;;;11.40;98.00;;;;;;5051395;28;20468;-67
2022/09/24 04:19:08;;;;;;;5.00;2.50;;;11.30;98.00;;;;;;5051938;28;20523;-68
2022/09/24 04:21:35;;;;;;;3.67;2.60;;;11.40;98.00;;;;;;5051915;28;20459;-67
2022/09/24 04:24:03;;;;;;;5.40;2.63;;;11.60;98.00;;;;;;5051708;28;20829;-67
2022/09/24 04:26:30;;;;;;;3.30;2.43;;;11.70;98.00;;;;;;5051669;28;20489;-67
2022/09/24 04:28:58;;;;;;;6.90;3.77;;;11.60;98.00;;;;;;5051694;28;20471;-67
2022/09/24 04:31:26;;;;;;;4.87;2.20;;;11.50;98.00;;;;;;5051668;28;20469;-68
2022/09/24 04:33:54;;;;;;;4.23;2.07;;;11.40;98.00;;;;;;5051561;28;20861;-67
2022/09/24 04:36:21;;;;;;;3.17;2.00;;;11.40;98.00;;;;;;5051505;28;20802;-67
2022/09/24 04:38:49;;;;;;;3.17;1.97;;;11.50;98.00;;;;;;5051650;28;20767;-67
2022/09/24 04:41:16;;;;;;;5.63;2.53;;;11.50;98.00;;;;;;5051572;28;20855;-68
2022/09/24 04:43:45;;;;;;;3.90;2.47;;;11.50;98.00;;;;;;5051326;28;20466;-67
2022/09/24 04:46:14;;;;;;;3.37;2.30;;;11.50;98.00;;;;;;5051324;28;20461;-67
2022/09/24 04:48:41;;;;;;;4.13;2.87;;;11.50;98.00;;;;;;5051285;28;20460;-67
2022/09/24 04:51:09;;;;;;;3.20;1.90;;;11.60;98.00;;;;;;5051218;28;20457;-68
2022/09/24 04:53:37;;;;;;;3.60;2.70;;;11.50;98.00;;;;;;5051234;28;20947;-67
2022/09/24 04:56:10;;;;;;;4.43;2.73;;;11.50;98.00;;;;;;5051185;28;20825;-68
2022/09/24 04:58:37;;;;;;;3.60;2.07;;;11.50;98.00;;;;;;5051401;28;20647;-68
2022/09/24 05:01:04;;;;;;;3.47;2.40;;;11.40;98.00;;;;;;5051155;28;20474;-67
2022/09/24 05:03:33;;;;;;;3.37;2.23;;;11.40;98.00;;;;;;5051281;28;20473;-68
2022/09/24 05:06:00;;;;;;;4.10;2.40;;;11.50;98.00;;;;;;5051177;28;20454;-67
2022/09/24 05:08:27;;;;;;;3.70;2.80;;;11.50;98.00;;;;;;5051435;28;20486;-67
2022/09/24 05:10:55;;;;;;;8.40;3.63;;;11.50;98.00;;;;;;5051263;28;20875;-67
2022/09/24 05:13:22;;;;;;;3.10;2.17;;;11.70;98.00;;;;;;5051058;28;20937;-67
2022/09/24 05:15:49;;;;;;;3.90;2.53;;;11.60;98.00;;;;;;5051147;28;20459;-67
2022/09/24 05:18:17;;;;;;;3.80;2.20;;;11.40;98.00;;;;;;5049774;28;20467;-68
2022/09/24 05:20:45;;;;;;;3.90;2.50;;;11.40;98.00;;;;;;5051123;28;20516;-67
2022/09/24 05:23:12;;;;;;;5.70;2.80;;;11.40;98.00;;;;;;5050747;28;20513;-67
2022/09/24 05:28:22;;;;;;;4.00;2.20;;;11.40;98.00;;;;;;5054151;28;20481;-68
2022/09/24 05:30:49;;;;;;;4.00;2.77;;;11.50;98.00;;;;;;5054806;28;20509;-68
2022/09/24 05:33:16;;;;;;;5.10;2.70;;;11.60;98.00;;;;;;5054882;28;20454;-67
2022/09/24 05:35:43;;;;;;;3.80;2.70;;;11.70;98.00;;;;;;5054849;28;20490;-68
2022/09/24 05:38:12;;;;;;;3.90;3.00;;;11.80;98.00;;;;;;5054792;28;20454;-67
2022/09/24 05:40:50;;;;;;;4.00;2.63;;;11.80;98.00;;;;;;5055024;28;20453;-68
2022/09/24 05:43:19;;;;;;;4.33;2.80;;;12.00;98.00;;;;;;5054711;28;20514;-68
2022/09/24 05:45:47;;;;;;;4.53;3.10;;;12.00;98.00;;;;;;5054630;28;20459;-67
2022/09/24 05:48:15;;;;;;;4.30;2.87;;;11.80;98.00;;;;;;5054489;28;20542;-67
2022/09/24 05:50:42;;;;;;;5.00;2.50;;;11.80;98.00;;;;;;5054533;28;20464;-67
2022/09/24 05:53:11;;;;;;;5.30;2.97;;;11.90;98.00;;;;;;5054395;28;20454;-67
2022/09/24 05:55:38;;;;;;;5.70;3.47;;;12.00;98.00;;;;;;5054619;28;20484;-68
2022/09/24 05:58:06;;;;;;;2.07;1.80;;;12.00;98.00;;;;;;5054456;28;20471;-67
2022/09/24 06:00:34;;;;;;;4.20;2.40;;;12.00;98.00;;;;;;5054461;28;20504;-68
2022/09/24 06:03:04;;;;;;;4.80;2.63;;;12.20;98.00;;;;;;5053267;28;20466;-67
2022/09/24 06:05:33;;;;;;;4.83;2.83;;;12.20;98.00;;;;;;5054769;28;20453;-67
2022/09/24 06:08:00;;;;;;;7.37;3.53;;;12.20;98.00;;;;;;5054529;28;20572;-67
2022/09/24 06:10:28;;;;;;;5.40;3.07;;;12.10;98.00;;;;;;5054360;28;20462;-68
2022/09/24 06:12:55;;;;;;;3.73;2.50;;;12.00;98.00;;;;;;5054390;28;20481;-67
2022/09/24 06:15:25;;;;;;;4.07;2.40;;;12.10;98.00;;;;;;5054248;28;20459;-67
2022/09/24 06:17:54;;;;;;;4.37;2.63;;;12.10;98.00;;;;;;5053984;28;20456;-68
2022/09/24 06:20:21;;;;;;;4.60;2.77;;;12.20;98.00;;;;;;5054461;28;20566;-67
2022/09/24 06:22:49;;;;;;;5.80;2.93;;;12.30;98.00;;;;;;5054132;28;20996;-67
2022/09/24 06:25:16;;;;;;;3.60;2.60;;;12.40;98.00;;;;;;5052789;28;20484;-66
2022/09/24 06:27:47;;;;;;;5.17;3.13;;;12.30;98.00;;;;;;5053688;28;20884;-66
2022/09/24 06:30:14;;;;;;;5.23;2.67;;;12.40;98.00;;;;;;5054129;28;20463;-67
2022/09/24 06:32:41;;;;;;;4.40;3.20;;;12.50;98.00;;;;;;5053984;28;20462;-66
2022/09/24 06:35:09;;;;;;;4.90;2.70;;;12.60;98.00;;;;;;5053879;28;21019;-67
2022/09/24 06:37:36;;;;;;;6.27;3.20;;;12.80;98.00;;;;;;5053611;28;20580;-66
2022/09/24 06:40:03;;;;;;;5.87;2.93;;;12.80;98.00;;;;;;5052989;28;20452;-66
2022/09/24 06:42:31;;;;;;;4.43;3.30;;;12.90;98.00;;;;;;5053586;28;20465;-65
2022/09/24 06:45:01;;;;;;;4.87;3.23;;;12.80;98.00;;;;;;5053752;28;20463;-66
2022/09/24 06:47:29;;;;;;;7.57;3.20;;;12.80;98.00;;;;;;5053462;28;20478;-67
2022/09/24 06:49:56;;;;;;;6.87;3.87;;;12.80;98.00;;;;;;5053461;28;20545;-67
2022/09/24 06:52:23;;;;;;;8.07;4.20;;;12.80;98.00;;;;;;5053495;28;20456;-65
2022/09/24 06:54:50;;;;;;;7.10;3.10;;;12.70;98.00;;;;;;5053908;28;20797;-66
2022/09/24 06:57:17;;;;;;;4.40;3.07;;;12.70;98.00;;;;;;5053631;28;20525;-66
2022/09/24 06:59:44;;;;;;;9.50;3.97;;;12.80;98.00;;;;;;5053759;28;20458;-67
2022/09/24 07:02:14;;;;;;;5.63;2.90;;;12.80;98.00;;;;;;5053685;28;20555;-65
2022/09/24 07:04:41;;;;;;;7.60;3.97;;;12.90;98.00;;;;;;5053515;28;20480;-67
2022/09/24 07:09:52;;;;;;;5.70;3.33;;;13.20;98.00;;;;;;5053525;28;20440;-66
2022/09/24 07:12:19;;;;;;;8.53;3.60;;;13.20;98.00;;;;;;5051913;28;20459;-66
2022/09/24 07:14:46;;;;;;;7.33;3.90;;;13.20;98.00;;;;;;5053081;28;20466;-66
2022/09/24 07:17:15;;;;;;;6.23;3.93;;;13.20;98.00;;;;;;5053100;28;20809;-67
2022/09/24 07:19:42;;;;;;;5.87;3.50;;;13.40;98.00;;;;;;5053201;28;20451;-65
2022/09/24 07:22:09;;;;;;;6.97;3.30;;;13.40;98.00;;;;;;5053019;28;20460;-66
2022/09/24 07:24:36;;;;;;;4.83;3.30;;;13.40;98.00;;;;;;5052878;28;20460;-66
2022/09/24 07:27:04;;;;;;;7.27;3.83;;;13.50;98.00;;;;;;5052651;28;20482;-66
2022/09/24 07:29:32;;;;;;;4.97;2.93;;;13.30;98.00;;;;;;5052679;28;20463;-66
2022/09/24 07:31:59;;;;;;;5.10;3.27;;;13.30;98.00;;;;;;5052616;28;20840;-67
2022/09/24 07:34:27;;;;;;;4.67;3.30;;;13.40;98.00;;;;;;5079852;28;20469;-67
2022/09/24 07:36:55;;;;;;;8.10;3.80;;;13.40;98.00;;;;;;5071210;28;20465;-67
2022/09/24 07:39:23;;;;;;;4.73;3.00;;;13.60;98.00;;;;;;5080407;28;20541;-67
2022/09/24 07:41:51;;;;;;;4.13;2.73;;;13.70;98.00;;;;;;5079709;28;20456;-66
2022/09/24 07:44:19;;;;;;;4.97;2.87;;;13.80;98.00;;;;;;5071534;28;20555;-63
2022/09/24 07:46:47;;;;;;;6.27;3.13;;;13.80;98.00;;;;;;5071240;28;20496;-72
2022/09/24 07:49:14;;;;;;;4.07;2.50;;;13.90;98.00;;;;;;5078639;28;20524;-71
2022/09/24 07:51:44;;;;;;;4.20;2.73;;;14.00;98.00;;;;;;5070539;28;20517;-72
2022/09/24 07:54:11;;;;;;;3.53;2.60;;;14.20;98.00;;;;;;5079897;28;20905;-72
2022/09/24 07:56:38;;;;;;;7.03;3.57;;;14.40;98.00;;;;;;5071637;28;20454;-67
2022/09/24 07:59:06;;;;;;;7.83;3.53;;;14.50;98.00;;;;;;5088922;28;20455;-68
2022/09/24 08:01:33;;;;;;;6.70;3.50;;;14.70;98.00;;;;;;5088278;28;20542;-66
2022/09/24 08:04:01;;;;;;;5.97;3.43;;;14.70;98.00;;;;;;5061933;28;20515;-67
2022/09/24 08:06:28;;;;;;;6.33;3.90;;;14.60;98.00;;;;;;5071383;28;20457;-67
2022/09/24 08:08:56;;;;;;;7.93;3.73;;;14.50;98.00;;;;;;5088171;28;20567;-67
2022/09/24 08:11:24;;;;;;;7.53;3.60;;;14.40;98.00;;;;;;5061818;28;20800;-67
2022/09/24 08:13:51;;;;;;;8.43;3.30;;;14.60;98.00;;;;;;5079267;28;20504;-67
2022/09/24 08:16:20;;;;;;;5.10;3.30;;;14.60;98.00;;;;;;5071103;28;20896;-66
2022/09/24 08:18:47;;;;;;;6.27;3.03;;;14.70;98.00;;;;;;5079585;28;20489;-66
2022/09/24 08:21:14;;;;;;;5.47;3.60;;;14.70;98.00;;;;;;5080560;28;20473;-67
2022/09/24 08:23:43;;;;;;;8.97;3.70;;;14.60;98.00;;;;;;5087227;28;20798;-67
2022/09/24 08:26:12;;;;;;;6.20;3.73;;;14.60;98.00;;;;;;5053699;28;20460;-67
2022/09/24 08:28:41;;;;;;;7.57;3.57;;;14.70;98.00;;;;;;5087259;28;20893;-67
2022/09/24 08:31:11;;;;;;;9.47;5.50;;;14.70;98.00;;;;;;5071464;28;20497;-67
2022/09/24 08:33:39;;;;;;;9.70;4.13;;;14.70;98.00;;;;;;5071517;28;20463;-68
2022/09/24 08:36:09;;;;;;;4.47;3.50;;;14.80;98.00;;;;;;5071347;28;20467;-66
2022/09/24 08:38:36;;;;;;;9.00;4.13;;;14.90;98.00;;;;;;5054065;28;20484;-67
2022/09/24 08:41:21;;;;;;;6.70;3.70;;;15.00;98.00;;;;;;5053704;28;20463;-66
2022/09/24 08:43:58;;;;;;;8.33;3.13;;;15.00;98.00;;;;;;5071615;28;20510;-66
2022/09/24 08:49:17;;;;;;;7.93;3.20;;;15.20;98.00;;;;;;5071533;28;20477;-66
2022/09/24 08:51:57;;;;;;;9.50;4.03;;;15.20;98.00;;;;;;5071230;28;20455;-67
2022/09/24 08:54:27;;;;;;;5.90;3.50;;;15.30;98.00;;;;;;5071566;28;20513;-67
2022/09/24 08:56:56;;;;;;;7.20;4.40;;;15.40;98.00;;;;;;5071439;28;21019;-67
2022/09/24 08:59:30;;;;;;;8.73;3.57;;;15.50;98.00;;;;;;5071545;28;20487;-67
2022/09/24 09:02:15;;;;;;;8.77;4.50;;;15.40;98.00;;;;;;5071094;28;20498;-66
2022/09/24 09:04:56;;;;;;;5.97;4.00;;;15.30;98.00;;;;;;5071238;28;20968;-66
2022/09/24 09:07:28;;;;;;;5.77;3.73;;;15.50;98.00;;;;;;5070998;28;20464;-67
2022/09/24 09:10:01;;;;;;;10.03;5.27;;;15.70;98.00;;;;;;5071059;28;20466;-65
2022/09/24 09:12:37;;;;;;;7.20;3.77;;;15.80;98.00;;;;;;5071121;28;20462;-66
2022/09/24 09:15:10;;;;;;;7.07;4.20;;;15.80;98.00;;;;;;5071203;28;20463;-66
2022/09/24 09:17:46;;;;;;;9.57;4.47;;;15.90;98.00;;;;;;5071485;28;20869;-66
2022/09/24 09:20:18;;;;;;;6.80;3.80;;;16.00;98.00;;;;;;5071162;28;20471;-66
2022/09/24 09:22:49;;;;;;;5.80;3.10;;;16.00;98.00;;;;;;5070947;28;20950;-66
2022/09/24 09:25:21;;;;;;;6.07;4.00;;;16.10;98.00;;;;;;5053462;28;20882;-67
2022/09/24 09:27:58;;;;;;;7.50;3.90;;;16.10;98.00;;;;;;5053140;28;20492;-66
2022/09/24 09:30:25;;;;;;;7.83;4.20;;;16.20;98.00;;;;;;5071071;28;20464;-67
2022/09/24 09:33:10;;;;;;;6.37;4.00;;;16.30;98.00;;;;;;5071006;28;20461;-67
2022/09/24 09:35:44;;;;;;;6.70;3.50;;;16.30;98.00;;;;;;5070893;28;20471;-66
2022/09/24 09:38:18;;;;;;;8.10;4.10;;;16.40;98.00;;;;;;5070963;28;20841;-66
2022/09/24 09:40:53;;;;;;;11.53;4.53;;;16.50;98.00;;;;;;5071054;28;20954;-66
2022/09/24 09:43:22;;;;;;;7.10;3.80;;;16.60;98.00;;;;;;5070851;28;20502;-67
2022/09/24 09:45:59;;;;;;;9.80;4.10;;;16.60;98.00;;;;;;5070730;28;20957;-67
2022/09/24 09:48:31;;;;;;;7.40;4.00;;;16.70;98.00;;;;;;5070616;28;20494;-67
2022/09/24 09:51:03;;;;;;;7.20;4.20;;;16.70;98.00;;;;;;5070798;28;20475;-66
2022/09/24 09:53:31;;;;;;;7.20;4.17;;;16.90;98.00;;;;;;5071178;28;20486;-68
2022/09/24 09:56:00;;;;;;;11.93;3.67;;;17.00;98.00;;;;;;5052993;28;20460;-66
2022/09/24 09:58:30;;;;;;;5.97;3.60;;;17.00;98.00;;;;;;5070800;28;20547;-67
2022/09/24 10:01:06;;;;;;;6.30;3.40;;;17.10;98.00;;;;;;5070567;28;20547;-65
2022/09/24 10:03:47;;;;;;;12.23;3.83;;;17.30;98.00;;;;;;5070546;28;20467;-67
2022/09/24 10:06:24;;;;;;;6.90;3.50;;;17.50;98.00;;;;;;5070598;28;20938;-67
2022/09/24 10:08:51;;;;;;;5.90;3.40;;;17.60;98.00;;;;;;5070575;28;20483;-67
2022/09/24 10:11:18;;;;;;;6.23;3.27;;;17.70;98.00;;;;;;5070647;28;20456;-66
2022/09/24 10:13:47;;;;;;;4.90;3.27;;;17.70;98.00;;;;;;5071565;28;20547;-67
2022/09/24 10:16:15;;;;;;;7.87;3.33;;;17.70;98.00;;;;;;5074313;28;20461;-67
2022/09/24 10:18:47;;;;;;;5.80;3.60;;;17.90;98.00;;;;;;5074109;28;20539;-67
2022/09/24 10:21:33;;;;;;;5.83;3.40;;;18.10;98.00;;;;;;5074484;28;20465;-67
2022/09/24 10:24:02;;;;;;;4.80;3.10;;;18.20;98.00;;;;;;5073830;28;20510;-66
2022/09/24 10:26:39;;;;;;;3.50;2.20;;;18.30;98.00;;;;;;5074127;28;20452;-68
2022/09/24 10:31:59;;;;;;;3.37;2.23;;;18.60;98.00;;;;;;5073884;28;21009;-66
2022/09/24 10:34:28;;;;;;;4.00;2.57;;;18.80;98.00;;;;;;5073982;28;20467;-67
2022/09/24 10:37:00;;;;;;;3.60;2.30;;;18.60;98.00;;;;;;5073686;28;21000;-68
2022/09/24 10:39:27;;;;;;;3.87;2.40;;;18.70;98.00;;;;;;5073952;28;20468;-68
2022/09/24 10:41:56;;;;;;;4.23;2.23;;;18.70;98.00;;;;;;5073862;28;20467;-67
2022/09/24 10:44:32;;;;;;;4.70;2.10;;;18.70;98.00;;;;;;5073772;28;20464;-68
2022/09/24 10:47:17;;;;;;;4.63;2.40;;;18.70;98.00;;;;;;5073533;28;20463;-68
2022/09/24 10:49:55;;;;;;;2.30;2.07;;;18.60;98.00;;;;;;5073770;28;21021;-69
2022/09/24 10:52:36;;;;;;;4.00;1.97;;;18.50;98.00;;;;;;5073691;28;20578;-68
2022/09/24 10:55:17;;;;;;;4.43;2.23;;;18.40;98.00;;;;;;5073979;28;20464;-68
2022/09/24 10:57:55;;;;;;;4.13;2.17;;;18.20;98.00;;;;;;5073414;28;20460;-68
2022/09/24 11:00:31;;;;;;;8.53;2.70;;;18.20;98.00;;;;;;5073474;28;20460;-69
2022/09/24 11:03:19;;;;;;;3.63;2.67;;;18.10;98.00;;;;;;5073447;28;20448;-68
2022/09/24 11:05:52;;;;;;;7.87;2.20;;;18.10;98.00;;;;;;5073231;28;20457;-69
2022/09/24 11:08:30;;;;;;;4.23;2.30;;;18.20;98.00;;;;;;5073281;28;20558;-67
2022/09/24 11:11:18;;;;;;;5.03;2.67;;;18.20;98.00;;;;;;5073262;28;20453;-68
2022/09/24 11:13:55;;;;;;;3.47;2.60;;;18.00;98.00;;;;;;5073083;28;20493;-68
2022/09/24 11:16:46;;;;;;;4.43;2.20;;;18.00;98.00;;;;;;5073013;28;20480;-67
2022/09/24 11:19:25;;;;;;;3.97;2.37;;;18.00;98.00;;;;;;5072809;28;20453;-67
2022/09/24 11:22:11;;;;;;;3.30;2.03;;;18.10;98.00;;;;;;5072700;28;20494;-67
2022/09/24 11:24:56;;;;;;;5.00;2.40;;;18.30;98.00;;;;;;5054890;28;20491;-67
2022/09/24 11:27:51;;;;;;;3.53;2.50;;;18.40;98.00;;;;;;5072600;28;20463;-66
2022/09/24 11:30:21;;;;;;;6.20;2.63;;;18.50;98.00;;;;;;5067013;28;20484;-66
2022/09/24 11:33:20;;;;;;;3.77;2.53;;;18.60;98.00;;;;;;5072796;28;20503;-68
2022/09/24 11:36:07;;;;;;;7.23;2.40;;;18.80;98.00;;;;;;5054811;28;20821;-67
2022/09/24 11:38:51;;;;;;;3.87;2.17;;;18.80;98.00;;;;;;5072796;28;20460;-68
2022/09/24 11:41:29;;;;;;;5.73;2.30;;;18.80;98.00;;;;;;5072652;28;20461;-68
2022/09/24 11:44:12;;;;;;;4.40;2.40;;;18.70;98.00;;;;;;5055840;28;20488;-67
2022/09/24 11:46:51;;;;;;;3.20;2.13;;;18.70;98.00;;;;;;5072707;28;20471;-66
2022/09/24 11:49:41;;;;;;;3.60;2.10;;;18.80;98.00;;;;;;5072809;28;20488;-66
2022/09/24 11:52:13;;;;;;;4.93;2.50;;;18.70;98.00;;;;;;5072498;28;20483;-67
2022/09/24 11:54:45;;;;;;;4.10;2.43;;;18.60;98.00;;;;;;5072389;28;20514;-68
2022/09/24 11:57:18;;;;;;;3.27;2.27;;;18.60;98.00;;;;;;5072191;28;20457;-67
2022/09/24 11:59:50;;;;;;;4.50;2.50;;;18.40;98.00;;;;;;5072374;28;20445;-67
2022/09/24 12:02:23;;;;;;;2.93;2.20;;;18.40;98.00;;;;;;5072197;28;20456;-67
2022/09/24 12:05:00;;;;;;;3.83;2.20;;;18.50;98.00;;;;;;5054775;28;20466;-67
2022/09/24 12:07:39;;;;;;;3.30;2.23;;;18.60;98.00;;;;;;5072046;28;20456;-68
2022/09/24 12:10:24;;;;;;;4.47;2.23;;;18.60;98.00;;;;;;5071808;28;20484;-69
2022/09/24 12:12:54;;;;;;;3.80;2.50;;;18.80;98.00;;;;;;5071846;28;20518;-67
2022/09/24 12:15:25;;;;;;;1.83;1.63;;;18.90;98.00;;;;;;5071294;28;20509;-67
2022/09/24 12:17:56;;;;;;;3.10;2.27;;;19.00;98.00;;;;;;5071908;28;20947;-68
2022/09/24 12:20:27;;;;;;;3.00;2.10;;;19.00;98.00;;;;;;5071959;28;20553;-68
2022/09/24 12:22:59;;;;;;;5.23;2.17;;;19.10;98.00;;;;;;5071797;28;20538;-67
2022/09/24 12:25:32;;;;;;;3.10;1.70;;;19.00;98.00;;;;;;5071609;28;20548;-67
2022/09/24 12:28:00;;;;;;;2.33;1.93;;;19.00;98.00;;;;;;5071706;28;20464;-66
2022/09/24 12:33:27;;;;;;;2.53;2.00;;;18.80;98.00;;;;;;5071552;28;20526;-66
2022/09/24 12:36:12;;;;;;;3.70;2.03;;;18.90;98.00;;;;;;5071261;28;20467;-66
2022/09/24 12:38:45;;;;;;;2.43;1.93;;;19.20;98.00;;;;;;5071514;28;20453;-67
2022/09/24 12:41:27;;;;;;;2.90;2.00;;;19.50;98.00;;;;;;5071520;28;20461;-67
2022/09/24 12:44:01;;;;;;;3.13;2.40;;;19.80;98.00;;;;;;5071465;28;20459;-67
2022/09/24 12:46:31;;;;;;;2.37;1.73;;;19.70;98.00;;;;;;5071793;28;20456;-68
2022/09/24 12:48:59;;;;;;;2.27;1.83;;;19.60;98.00;;;;;;5071550;28;20489;-67
2022/09/24 12:51:38;;;;;;;2.70;1.90;;;19.50;98.00;;;;;;5071556;28;20453;-66
2022/09/24 12:54:08;;;;;;;1.90;1.53;;;19.40;98.00;;;;;;5071433;28;20461;-67
2022/09/24 12:56:36;;;;;;;2.90;2.07;;;19.20;98.00;;;;;;5071383;28;20488;-68
2022/09/24 12:59:04;;;;;;;2.30;1.70;;;19.00;98.00;;;;;;5053485;28;20453;-68
2022/09/24 13:01:32;;;;;;;2.47;1.80;;;18.90;98.00;;;;;;5071265;28;20963;-67
2022/09/24 13:04:29;;;;;;;2.33;1.80;;;18.80;98.00;;;;;;5071146;28;20487;-67
2022/09/24 13:06:57;;;;;;;2.70;2.00;;;18.70;98.00;;;;;;5070748;28;20514;-67
2022/09/24 13:09:33;;;;;;;3.53;1.90;;;18.60;98.00;;;;;;5071521;28;20593;-67
2022/09/24 13:12:23;;;;;;;2.10;1.70;;;18.60;98.00;;;;;;5052993;28;20559;-67
2022/09/24 13:14:56;;;;;;;1.80;1.60;;;18.40;98.00;;;;;;5063224;28;20959;-68
2022/09/24 13:17:24;;;;;;;3.77;2.03;;;18.30;98.00;;;;;;5070990;28;20453;-67
2022/09/24 13:20:07;;;;;;;1.93;1.37;;;18.30;98.00;;;;;;5071028;28;20540;-67
2022/09/24 13:22:37;;;;;;;2.40;2.10;;;18.30;98.00;;;;;;5071367;28;20491;-67
2022/09/24 13:25:23;;;;;;;2.93;1.90;;;18.10;98.00;;;;;;5071126;28;20841;-67